createdAt,value
2018-06-05T00:01:14.668Z,98025.84
2018-06-05T00:03:42.753Z,98022.95
2018-06-05T00:06:11.048Z,98022.46
2018-06-05T00:08:39.140Z,98013.78
2018-06-05T00:11:07.324Z,98012.59
2018-06-05T00:13:35.568Z,98013.64
2018-06-05T00:16:03.640Z,98017.77
2018-06-05T00:18:31.778Z,98015.56
2018-06-05T00:21:00.356Z,98018.91
2018-06-05T00:23:28.528Z,98019.66
2018-06-05T00:25:56.632Z,98021.63
2018-06-05T00:28:24.744Z,98017.08
2018-06-05T00:30:53.324Z,98017.24
2018-06-05T00:33:21.395Z,98021.13
2018-06-05T00:35:49.963Z,98017.19
2018-06-05T00:38:18.060Z,98030.93
2018-06-05T00:40:46.136Z,98031.71
2018-06-05T00:43:17.112Z,98031.37
2018-06-05T00:45:51.072Z,98032.36
2018-06-05T00:48:19.412Z,98024.14
2018-06-05T00:50:48.296Z,98028.95
2018-06-05T00:53:17.584Z,98029.94
2018-06-05T00:55:45.685Z,98024.52
2018-06-05T00:58:13.812Z,98027.71
2018-06-05T01:00:41.898Z,98029.32
2018-06-05T01:03:10.140Z,98037.03
2018-06-05T01:05:38.713Z,98045.31
2018-06-05T01:08:07.589Z,98049.22
2018-06-05T01:10:37.500Z,98043.17
2018-06-05T01:13:05.613Z,98046.72
2018-06-05T01:15:33.866Z,98046.61
2018-06-05T01:18:01.974Z,98042.63
2018-06-05T01:20:30.075Z,98053.36
2018-06-05T01:22:58.240Z,98052.27
2018-06-05T01:25:26.357Z,98058.98
2018-06-05T01:27:55.055Z,98058.37
2018-06-05T01:30:24.259Z,98061.45
2018-06-05T01:32:52.353Z,98062.52
2018-06-05T01:35:20.420Z,98058.37
2018-06-05T01:37:48.500Z,98060.81
2018-06-05T01:40:17.202Z,98061.49
2018-06-05T01:42:45.288Z,98058.34
2018-06-05T01:45:13.393Z,98056.41
2018-06-05T01:47:41.836Z,98061.94
2018-06-05T01:50:10.849Z,98065.59
2018-06-05T01:52:39.322Z,98059.94
2018-06-05T01:55:07.649Z,98060.27
2018-06-05T01:57:36.972Z,98063.27
2018-06-05T02:00:05.181Z,98058.94
2018-06-05T02:02:33.279Z,98059.89
2018-06-05T02:05:01.617Z,98067.18
2018-06-05T02:07:30.464Z,98069.73
2018-06-05T02:09:58.643Z,98068.58
2018-06-05T02:12:26.832Z,98066.23
2018-06-05T02:14:55.068Z,98065.50
2018-06-05T02:17:23.160Z,98058.33
2018-06-05T02:19:51.759Z,98059.95
2018-06-05T02:22:21.160Z,98053.94
2018-06-05T02:24:51.540Z,98058.20
2018-06-05T02:27:20.762Z,98050.16
2018-06-05T02:29:49.080Z,98053.26
2018-06-05T02:32:17.676Z,98050.11
2018-06-05T02:34:45.779Z,98051.00
2018-06-05T02:37:13.956Z,98050.38
2018-06-05T02:39:42.074Z,98054.55
2018-06-05T02:42:10.644Z,98053.07
2018-06-05T02:44:38.856Z,98055.72
2018-06-05T02:47:06.984Z,98051.48
2018-06-05T02:49:35.428Z,98062.70
2018-06-05T02:52:03.537Z,98060.14
2018-06-05T02:54:31.733Z,98064.55
2018-06-05T02:57:00.280Z,98065.63
2018-06-05T02:59:28.684Z,98064.00
2018-06-05T03:01:56.862Z,98068.97
2018-06-05T03:04:25.952Z,98073.57
2018-06-05T03:06:54.301Z,98068.78
2018-06-05T03:09:22.414Z,98076.14
2018-06-05T03:11:51.334Z,98078.76
2018-06-05T03:14:19.444Z,98081.33
2018-06-05T03:16:48.767Z,98083.66
2018-06-05T03:19:16.935Z,98091.39
2018-06-05T03:21:45.068Z,98088.80
2018-06-05T03:24:13.162Z,98088.82
2018-06-05T03:26:42.188Z,98087.16
2018-06-05T03:29:10.865Z,98096.16
2018-06-05T03:31:39.648Z,98091.78
2018-06-05T03:34:08.760Z,98087.80
2018-06-05T03:36:36.872Z,98089.08
2018-06-05T03:39:06.428Z,98090.00
2018-06-05T03:41:34.514Z,98087.63
2018-06-05T03:44:03.000Z,98089.75
2018-06-05T03:46:31.068Z,98087.40
2018-06-05T03:48:59.701Z,98087.83
2018-06-05T03:51:28.079Z,98087.33
2018-06-05T03:53:56.389Z,98096.27
2018-06-05T03:56:24.480Z,98094.84
2018-06-05T03:58:52.619Z,98102.01
2018-06-05T04:01:20.707Z,98098.91
2018-06-05T04:03:48.844Z,98099.94
2018-06-05T04:06:17.105Z,98100.89
2018-06-05T04:08:45.184Z,98102.38
2018-06-05T04:11:13.979Z,98099.34
2018-06-05T04:13:42.075Z,98098.77
2018-06-05T04:16:10.520Z,98106.23
2018-06-05T04:18:42.731Z,98106.34
2018-06-05T04:21:10.862Z,98109.64
2018-06-05T04:23:39.056Z,98112.87
2018-06-05T04:26:07.140Z,98116.55
2018-06-05T04:28:35.373Z,98114.74
2018-06-05T04:31:03.476Z,98113.08
2018-06-05T04:33:31.551Z,98117.66
2018-06-05T04:35:59.635Z,98118.39
2018-06-05T04:38:27.709Z,98121.25
2018-06-05T04:40:56.035Z,98114.78
2018-06-05T04:43:24.116Z,98118.05
2018-06-05T04:45:52.200Z,98113.98
2018-06-05T04:48:20.482Z,98109.13
2018-06-05T04:50:49.729Z,98109.27
2018-06-05T04:53:17.838Z,98111.60
2018-06-05T04:55:46.052Z,98121.99
2018-06-05T04:58:14.233Z,98121.46
2018-06-05T05:00:42.323Z,98119.36
2018-06-05T05:03:10.415Z,98125.39
2018-06-05T05:05:38.503Z,98137.00
2018-06-05T05:08:06.663Z,98136.02
2018-06-05T05:10:34.755Z,98133.31
2018-06-05T05:13:02.839Z,98132.39
2018-06-05T05:15:31.006Z,98126.72
2018-06-05T05:17:59.083Z,98125.53
2018-06-05T05:20:27.420Z,98127.22
2018-06-05T05:22:55.528Z,98120.69
2018-06-05T05:25:23.992Z,98121.02
2018-06-05T05:27:52.301Z,98115.72
2018-06-05T05:30:20.403Z,98117.50
2018-06-05T05:32:48.480Z,98118.27
2018-06-05T05:35:18.396Z,98120.86
2018-06-05T05:37:46.497Z,98120.03
2018-06-05T05:40:14.621Z,98123.64
2018-06-05T05:42:42.711Z,98124.83
2018-06-05T05:45:10.901Z,98121.30
2018-06-05T05:47:38.996Z,98121.80
2018-06-05T05:50:07.088Z,98123.73
2018-06-05T05:52:35.176Z,98127.52
2018-06-05T05:55:03.317Z,98123.75
2018-06-05T05:57:31.531Z,98120.23
2018-06-05T05:59:59.616Z,98123.27
2018-06-05T06:02:27.784Z,98127.67
2018-06-05T06:04:56.119Z,98134.19
2018-06-05T06:07:24.508Z,98129.62
2018-06-05T06:09:52.784Z,98127.85
2018-06-05T06:12:21.042Z,98124.23
2018-06-05T06:14:49.329Z,98126.63
2018-06-05T06:17:17.420Z,98131.72
2018-06-05T06:19:45.552Z,98128.17
2018-06-05T06:22:13.652Z,98130.15
2018-06-05T06:24:41.731Z,98139.82
2018-06-05T06:27:09.829Z,98143.98
2018-06-05T06:29:37.924Z,98139.22
2018-06-05T06:32:06.042Z,98135.62
2018-06-05T06:34:34.201Z,98140.75
2018-06-05T06:37:02.345Z,98134.27
2018-06-05T06:39:30.875Z,98135.52
2018-06-05T06:41:59.197Z,98138.11
2018-06-05T06:44:27.796Z,98139.39
2018-06-05T06:46:55.907Z,98139.16
2018-06-05T06:49:24.008Z,98146.17
2018-06-05T06:51:52.280Z,98148.55
2018-06-05T06:54:20.624Z,98149.36
2018-06-05T06:56:48.720Z,98157.12
2018-06-05T06:59:16.867Z,98151.56
2018-06-05T07:01:44.965Z,98156.13
2018-06-05T07:04:13.088Z,98161.35
2018-06-05T07:06:41.176Z,98155.33
2018-06-05T07:09:09.427Z,98155.65
2018-06-05T07:11:37.532Z,98156.92
2018-06-05T07:14:05.646Z,98163.97
2018-06-05T07:16:33.684Z,98158.92
2018-06-05T07:19:01.801Z,98160.50
2018-06-05T07:21:29.904Z,98156.70
2018-06-05T07:23:58.637Z,98160.81
2018-06-05T07:26:26.720Z,98161.31
2018-06-05T07:28:54.831Z,98158.02
2018-06-05T07:31:22.946Z,98150.44
2018-06-05T07:33:51.073Z,98150.77
2018-06-05T07:36:19.174Z,98162.01
2018-06-05T07:38:47.270Z,98154.69
2018-06-05T07:41:15.393Z,98151.42
2018-06-05T07:43:43.489Z,98150.93
2018-06-05T07:46:11.581Z,98142.72
2018-06-05T07:48:39.795Z,98147.81
2018-06-05T07:51:07.864Z,98149.52
2018-06-05T07:53:36.016Z,98142.42
2018-06-05T07:56:05.089Z,98147.16
2018-06-05T07:58:33.182Z,98142.86
2018-06-05T08:01:01.280Z,98142.24
2018-06-05T08:03:29.411Z,98146.00
2018-06-05T08:05:57.768Z,98144.00
2018-06-05T08:08:26.095Z,98146.78
2018-06-05T08:10:54.724Z,98143.03
2018-06-05T08:13:22.854Z,98144.37
2018-06-05T08:15:50.971Z,98138.78
2018-06-05T08:18:19.105Z,98138.31
2018-06-05T08:20:47.319Z,98149.44
2018-06-05T08:23:16.485Z,98146.45
2018-06-05T08:25:44.576Z,98142.25
2018-06-05T08:28:12.723Z,98145.97
2018-06-05T08:30:40.844Z,98146.30
2018-06-05T08:33:08.940Z,98148.91
2018-06-05T08:35:37.034Z,98146.70
2018-06-05T08:38:05.446Z,98142.95
2018-06-05T08:40:33.536Z,98151.09
2018-06-05T08:43:02.268Z,98141.86
2018-06-05T08:45:30.361Z,98142.48
2018-06-05T08:47:58.635Z,98145.59
2018-06-05T08:50:26.744Z,98147.77
2018-06-05T08:52:55.973Z,98143.70
2018-06-05T08:55:24.221Z,98146.33
2018-06-05T08:57:52.628Z,98147.05
2018-06-05T09:00:20.724Z,98146.67
2018-06-05T09:02:49.644Z,98142.84
2018-06-05T09:05:17.759Z,98146.13
2018-06-05T09:07:45.831Z,98145.16
2018-06-05T09:10:14.093Z,98140.59
2018-06-05T09:12:42.204Z,98146.16
2018-06-05T09:15:10.368Z,98141.86
2018-06-05T09:17:38.459Z,98145.53
2018-06-05T09:20:06.662Z,98139.02
2018-06-05T09:22:35.537Z,98142.41
2018-06-05T09:25:03.665Z,98132.79
2018-06-05T09:27:32.001Z,98133.37
2018-06-05T09:30:00.326Z,98136.87
2018-06-05T09:32:28.512Z,98138.14
2018-06-05T09:34:56.672Z,98140.52
2018-06-05T09:37:24.784Z,98140.80
2018-06-05T09:39:53.109Z,98127.30
2018-06-05T09:42:21.935Z,98134.30
2018-06-05T09:44:50.096Z,98137.54
2018-06-05T09:47:18.168Z,98135.80
2018-06-05T09:49:46.366Z,98138.20
2018-06-05T09:52:15.160Z,98132.51
2018-06-05T09:54:43.280Z,98136.70
2018-06-05T09:57:11.394Z,98132.00
2018-06-05T09:59:39.492Z,98131.09
2018-06-05T10:02:07.587Z,98131.72
2018-06-05T10:04:35.768Z,98130.66
2018-06-05T10:07:03.860Z,98126.16
2018-06-05T10:09:32.072Z,98126.66
2018-06-05T10:12:00.148Z,98124.97
2018-06-05T10:14:29.153Z,98124.72
2018-06-05T10:16:57.328Z,98123.30
2018-06-05T10:19:25.416Z,98116.46
2018-06-05T10:21:53.516Z,98119.42
2018-06-05T10:24:21.734Z,98115.62
2018-06-05T10:26:49.964Z,98119.11
2018-06-05T10:29:18.064Z,98120.84
2018-06-05T10:31:46.163Z,98115.27
2018-06-05T10:34:14.477Z,98113.86
2018-06-05T10:36:42.560Z,98112.81
2018-06-05T10:39:10.637Z,98118.26
2018-06-05T10:41:38.736Z,98115.05
2018-06-05T10:44:07.048Z,98109.41
2018-06-05T10:46:35.187Z,98113.46
2018-06-05T10:49:03.236Z,98109.34
2018-06-05T10:51:31.331Z,98107.19
2018-06-05T10:53:59.816Z,98113.46
2018-06-05T10:56:27.909Z,98112.86
2018-06-05T10:58:56.287Z,98111.56
2018-06-05T11:01:24.428Z,98107.82
2018-06-05T11:03:52.531Z,98100.91
2018-06-05T11:06:20.625Z,98097.23
2018-06-05T11:08:48.720Z,98097.26
2018-06-05T11:11:16.947Z,98096.74
2018-06-05T11:13:45.046Z,98096.86
2018-06-05T11:16:13.157Z,98099.95
2018-06-05T11:18:41.438Z,98085.98
2018-06-05T11:21:09.508Z,98090.98
2018-06-05T11:23:37.620Z,98086.30
2018-06-05T11:26:06.184Z,98083.06
2018-06-05T11:28:34.296Z,98080.47
2018-06-05T11:31:02.560Z,98078.54
2018-06-05T11:33:31.141Z,98075.58
2018-06-05T11:35:59.288Z,98075.83
2018-06-05T11:38:27.379Z,98068.37
2018-06-05T11:40:55.449Z,98066.98
2018-06-05T11:43:23.556Z,98072.13
2018-06-05T11:45:51.656Z,98064.78
2018-06-05T11:48:19.763Z,98064.55
2018-06-05T11:50:47.869Z,98058.30
2018-06-05T11:53:16.271Z,98055.49
2018-06-05T11:55:44.552Z,98055.45
2018-06-05T11:58:12.632Z,98054.85
2018-06-05T12:00:40.716Z,98052.39
2018-06-05T12:03:09.052Z,98049.28
2018-06-05T12:05:37.143Z,98050.46
2018-06-05T12:08:05.248Z,98044.06
2018-06-05T12:10:33.332Z,98047.68
2018-06-05T12:13:01.645Z,98047.67
2018-06-05T12:15:29.877Z,98046.70
2018-06-05T12:17:58.253Z,98037.60
2018-06-05T12:20:26.974Z,98031.89
2018-06-05T12:22:55.053Z,98032.84
2018-06-05T12:25:23.176Z,98031.30
2018-06-05T12:27:51.471Z,98032.52
2018-06-05T12:30:19.560Z,98030.45
2018-06-05T12:32:47.641Z,98033.77
2018-06-05T12:35:15.749Z,98027.87
2018-06-05T12:37:43.867Z,98032.82
2018-06-05T12:40:11.969Z,98034.00
2018-06-05T12:42:40.144Z,98032.25
2018-06-05T12:45:08.251Z,98028.50
2018-06-05T12:47:36.372Z,98032.39
2018-06-05T12:50:04.488Z,98018.84
2018-06-05T12:52:32.739Z,98014.14
2018-06-05T12:55:00.830Z,98021.08
2018-06-05T12:57:29.013Z,98010.66
2018-06-05T12:59:57.161Z,98018.35
2018-06-05T13:02:25.252Z,98013.56
2018-06-05T13:04:53.350Z,97999.15
2018-06-05T13:07:21.432Z,98003.15
2018-06-05T13:09:49.516Z,98004.23
2018-06-05T13:12:17.648Z,98004.19
2018-06-05T13:14:45.900Z,98011.19
2018-06-05T13:17:14.195Z,98007.72
2018-06-05T13:19:42.633Z,98000.23
2018-06-05T13:22:10.699Z,98004.94
2018-06-05T13:24:38.792Z,98001.11
2018-06-05T13:27:07.786Z,97994.39
2018-06-05T13:29:35.893Z,97992.53
2018-06-05T13:32:04.013Z,97990.11
2018-06-05T13:34:32.100Z,97988.11
2018-06-05T13:37:00.194Z,97990.09
2018-06-05T13:39:29.267Z,97992.92
2018-06-05T13:41:57.652Z,97990.75
2018-06-05T13:44:25.724Z,97988.77
2018-06-05T13:46:53.841Z,97987.91
2018-06-05T13:49:21.931Z,97979.72
2018-06-05T13:51:50.360Z,97981.42
2018-06-05T13:54:18.428Z,97979.75
2018-06-05T13:56:46.577Z,97980.58
2018-06-05T13:59:15.785Z,97981.05
2018-06-05T14:01:44.121Z,97978.16
2018-06-05T14:04:12.250Z,97981.30
2018-06-05T14:06:40.561Z,97974.52
2018-06-05T14:09:09.250Z,97979.88
2018-06-05T14:11:37.788Z,97977.59
2018-06-05T14:14:05.897Z,97978.88
2018-06-05T14:16:34.064Z,97978.20
2018-06-05T14:19:02.181Z,97974.44
2018-06-05T14:21:30.640Z,97978.80
2018-06-05T14:23:58.724Z,97975.80
2018-06-05T14:26:26.871Z,97972.30
2018-06-05T14:28:55.162Z,97963.55
2018-06-05T14:31:24.016Z,97970.50
2018-06-05T14:33:52.089Z,97969.79
2018-06-05T14:36:20.205Z,97968.28
2018-06-05T14:38:48.273Z,97961.75
2018-06-05T14:41:16.532Z,97963.70
2018-06-05T14:43:44.632Z,97962.12
2018-06-05T14:46:13.732Z,97964.57
2018-06-05T14:48:41.956Z,97959.47
2018-06-05T14:51:10.248Z,97964.34
2018-06-05T14:53:38.335Z,97960.56
2018-06-05T14:56:06.425Z,97958.52
2018-06-05T14:58:34.603Z,97950.66
2018-06-05T15:01:02.688Z,97956.14
2018-06-05T15:03:30.849Z,97952.08
2018-06-05T15:05:58.916Z,97950.45
2018-06-05T15:08:27.008Z,97956.35
2018-06-05T15:10:55.540Z,97952.67
2018-06-05T15:13:23.636Z,97956.42
2018-06-05T15:15:51.716Z,97947.89
2018-06-05T15:18:19.820Z,97944.17
2018-06-05T15:20:47.920Z,97939.75
2018-06-05T15:23:16.076Z,97939.33
2018-06-05T15:25:44.184Z,97949.14
2018-06-05T15:28:12.459Z,97946.33
2018-06-05T15:30:40.648Z,97949.89
2018-06-05T15:33:08.724Z,97948.20
2018-06-05T15:35:37.701Z,97956.77
2018-06-05T15:38:05.807Z,97949.77
2018-06-05T15:40:34.117Z,97950.84
2018-06-05T15:43:02.889Z,97946.52
2018-06-05T15:45:31.099Z,97949.63
2018-06-05T15:47:59.264Z,97951.78
2018-06-05T15:50:27.382Z,97948.04
2018-06-05T15:52:55.544Z,97952.95
2018-06-05T15:55:23.652Z,97949.42
2018-06-05T15:57:51.719Z,97945.81
2018-06-05T16:00:19.833Z,97946.52
2018-06-05T16:02:48.000Z,97955.48
2018-06-05T16:05:16.356Z,97947.81
2018-06-05T16:07:44.812Z,97955.38
2018-06-05T16:10:12.972Z,97950.28
2018-06-05T16:12:41.057Z,97947.84
2018-06-05T16:15:09.174Z,97945.57
2018-06-05T16:17:37.240Z,97946.77
2018-06-05T16:20:05.354Z,97943.18
2018-06-05T16:22:33.416Z,97938.66
2018-06-05T16:25:01.504Z,97946.70
2018-06-05T16:27:29.576Z,97933.15
2018-06-05T16:29:57.680Z,97933.57
2018-06-05T16:32:25.784Z,97935.64
2018-06-05T16:34:53.882Z,97934.09
2018-06-05T16:37:22.292Z,97931.68
2018-06-05T16:39:50.383Z,97930.52
2018-06-05T16:42:18.550Z,97928.84
2018-06-05T16:44:46.621Z,97928.50
2018-06-05T16:47:14.680Z,97923.10
2018-06-05T16:49:42.771Z,97927.51
2018-06-05T16:52:10.877Z,97930.51
2018-06-05T16:54:38.978Z,97932.28
2018-06-05T16:57:07.063Z,97930.88
2018-06-05T16:59:35.169Z,97936.90
2018-06-05T17:02:03.273Z,97934.27
2018-06-05T17:04:31.521Z,97933.89
2018-06-05T17:07:03.728Z,97932.97
2018-06-05T17:09:31.836Z,97944.44
2018-06-05T17:12:00.854Z,97935.87
2018-06-05T17:14:29.008Z,97938.88
2018-06-05T17:16:57.218Z,97941.02
2018-06-05T17:19:25.618Z,97946.09
2018-06-05T17:21:53.708Z,97945.83
2018-06-05T17:24:22.006Z,97945.64
2018-06-05T17:26:50.304Z,97946.86
2018-06-05T17:29:18.411Z,97936.64
2018-06-05T17:31:46.531Z,97934.73
2018-06-05T17:34:14.609Z,97936.03
2018-06-05T17:36:42.739Z,97937.13
2018-06-05T17:39:11.945Z,97933.66
2018-06-05T17:41:40.088Z,97937.31
2018-06-05T17:44:08.169Z,97933.22
2018-06-05T17:46:36.267Z,97929.22
2018-06-05T17:49:04.360Z,97937.51
2018-06-05T17:51:32.448Z,97932.97
2018-06-05T17:54:00.533Z,97936.54
2018-06-05T17:56:28.630Z,97933.88
2018-06-05T17:58:56.926Z,97934.13
2018-06-05T18:01:25.017Z,97939.99
2018-06-05T18:03:53.565Z,97937.91
2018-06-05T18:06:21.621Z,97940.72
2018-06-05T18:08:49.792Z,97942.78
2018-06-05T18:11:19.929Z,97944.67
2018-06-05T18:13:49.169Z,97947.88
2018-06-05T18:16:17.575Z,97942.92
2018-06-05T18:18:45.669Z,97947.19
2018-06-05T18:21:13.769Z,97940.05
2018-06-05T18:23:41.836Z,97942.27
2018-06-05T18:26:09.916Z,97952.52
2018-06-05T18:28:38.032Z,97953.59
2018-06-05T18:31:06.254Z,97957.41
2018-06-05T18:33:34.392Z,97955.14
2018-06-05T18:36:03.530Z,97960.01
2018-06-05T18:38:32.011Z,97963.16
2018-06-05T18:41:00.596Z,97966.33
2018-06-05T18:43:28.699Z,97969.33
2018-06-05T18:45:57.048Z,97972.48
2018-06-05T18:48:25.417Z,97971.89
2018-06-05T18:50:53.725Z,97976.66
2018-06-05T18:53:21.827Z,97985.16
2018-06-05T18:55:49.899Z,97987.95
2018-06-05T18:58:17.997Z,97987.81
2018-06-05T19:00:46.294Z,97991.39
2018-06-05T19:03:16.044Z,97995.76
2018-06-05T19:05:44.127Z,97994.02
2018-06-05T19:08:12.240Z,98003.48
2018-06-05T19:10:40.653Z,98009.78
2018-06-05T19:13:08.755Z,98013.85
2018-06-05T19:15:36.838Z,98014.92
2018-06-05T19:18:05.311Z,98016.39
2018-06-05T19:20:33.383Z,98022.47
2018-06-05T19:23:01.480Z,98025.44
2018-06-05T19:25:29.562Z,98029.27
2018-06-05T19:27:57.696Z,98044.67
2018-06-05T19:30:25.877Z,98045.52
2018-06-05T19:32:54.024Z,98052.53
2018-06-05T19:35:22.107Z,98058.14
2018-06-05T19:37:50.168Z,98063.52
2018-06-05T19:40:18.263Z,98071.27
2018-06-05T19:42:46.852Z,98078.59
2018-06-05T19:45:15.079Z,98076.66
2018-06-05T19:47:43.167Z,98082.22
2018-06-05T19:50:11.296Z,98091.06
2018-06-05T19:52:39.441Z,98086.52
2018-06-05T19:55:07.521Z,98092.04
2018-06-05T19:57:35.612Z,98092.77
2018-06-05T20:00:03.692Z,98094.25
2018-06-05T20:02:31.861Z,98096.19
2018-06-05T20:05:00.180Z,98098.13
2018-06-05T20:07:28.499Z,98099.61
2018-06-05T20:09:56.617Z,98105.03
2018-06-05T20:12:27.520Z,98102.63
2018-06-05T20:14:56.131Z,98107.16
2018-06-05T20:17:24.216Z,98110.14
2018-06-05T20:19:52.674Z,98108.86
2018-06-05T20:22:20.889Z,98113.97
2018-06-05T20:24:48.967Z,98122.53
2018-06-05T20:27:17.102Z,98120.20
2018-06-05T20:29:45.758Z,98120.20
2018-06-05T20:32:13.960Z,98118.67
2018-06-05T20:34:42.052Z,98119.86
2018-06-05T20:37:10.260Z,98125.89
2018-06-05T20:39:38.356Z,98125.85
2018-06-05T20:42:06.440Z,98124.44
2018-06-05T20:44:34.548Z,98122.33
2018-06-05T20:47:02.648Z,98125.08
2018-06-05T20:49:31.063Z,98125.23
2018-06-05T20:51:59.148Z,98127.65
2018-06-05T21:00:29.124Z,98125.86
2018-06-05T21:08:34.358Z,98125.77
2018-06-05T21:13:36.635Z,98127.83
2018-06-05T21:16:04.846Z,98127.22
2018-06-05T21:18:32.978Z,98123.67
2018-06-05T21:21:01.118Z,98132.67
2018-06-05T21:32:36.894Z,98119.94
2018-06-05T21:35:05.086Z,98125.80
2018-06-05T21:37:34.043Z,98119.94
2018-06-05T21:40:02.302Z,98126.84
2018-06-05T21:42:30.426Z,98112.55
2018-06-05T21:48:35.330Z,98126.94
